createdAt,value
2018-11-25T00:00:20.571Z,55.17
2018-11-25T00:02:49.493Z,59.00
2018-11-25T00:05:18.394Z,57.60
2018-11-25T00:07:47.317Z,63.97
2018-11-25T00:10:16.197Z,63.60
2018-11-25T00:12:45.497Z,62.90
2018-11-25T00:15:14.360Z,66.13
2018-11-25T00:17:43.230Z,69.53
2018-11-25T00:20:13.596Z,60.60
2018-11-25T00:22:42.856Z,65.97
2018-11-25T00:25:14.209Z,63.87
2018-11-25T00:27:43.052Z,60.07
2018-11-25T00:30:13.785Z,68.90
2018-11-25T00:32:42.783Z,66.93
2018-11-25T00:35:14.532Z,69.03
2018-11-25T00:37:48.080Z,71.07
2018-11-25T00:40:13.529Z,66.10
2018-11-25T00:42:42.927Z,63.07
2018-11-25T00:45:16.478Z,71.40
2018-11-25T00:47:45.422Z,56.70
2018-11-25T00:50:14.877Z,63.17
2018-11-25T00:52:44.168Z,63.03
2018-11-25T00:55:15.628Z,61.03
2018-11-25T00:57:44.660Z,66.00
2018-11-25T01:00:17.351Z,65.57
2018-11-25T01:02:47.610Z,67.37
2018-11-25T01:05:16.517Z,65.20
2018-11-25T01:07:45.432Z,60.73
2018-11-25T01:10:15.808Z,60.13
2018-11-25T01:12:45.192Z,63.50
2018-11-25T01:15:15.632Z,64.03
2018-11-25T01:17:44.590Z,64.90
2018-11-25T01:20:19.711Z,64.27
2018-11-25T01:22:48.639Z,61.57
2018-11-25T01:25:17.518Z,55.30
2018-11-25T01:27:46.718Z,61.03
2018-11-25T01:30:16.631Z,55.20
2018-11-25T01:32:45.897Z,63.43
2018-11-25T01:35:15.012Z,60.13
2018-11-25T01:37:43.989Z,64.10
2018-11-25T01:40:15.492Z,59.37
2018-11-25T01:42:44.533Z,58.53
2018-11-25T01:45:16.053Z,60.67
2018-11-25T01:47:45.100Z,53.50
2018-11-25T01:50:16.421Z,52.17
2018-11-25T01:52:45.827Z,59.87
2018-11-25T01:55:18.534Z,53.07
2018-11-25T01:57:47.897Z,57.57
2018-11-25T02:00:22.394Z,56.53
2018-11-25T02:02:51.253Z,59.20
2018-11-25T02:05:20.133Z,66.70
2018-11-25T02:07:49.109Z,58.73
2018-11-25T02:10:19.160Z,63.40
2018-11-25T02:12:48.115Z,61.90
2018-11-25T02:15:17.439Z,59.80
2018-11-25T02:17:46.384Z,68.97
2018-11-25T02:20:23.785Z,60.23
2018-11-25T02:22:55.247Z,60.60
2018-11-25T02:25:24.138Z,63.27
2018-11-25T02:27:52.995Z,64.73
2018-11-25T02:30:21.966Z,59.20
2018-11-25T02:32:50.905Z,61.50
2018-11-25T02:35:19.871Z,67.83
2018-11-25T02:37:48.798Z,61.43
2018-11-25T02:40:17.774Z,62.77
2018-11-25T02:42:46.711Z,64.90
2018-11-25T02:45:17.841Z,71.17
2018-11-25T02:47:46.826Z,68.17
2018-11-25T02:50:28.393Z,67.20
2018-11-25T02:53:01.656Z,68.87
2018-11-25T02:55:30.648Z,65.97
2018-11-25T02:58:00.800Z,69.63
2018-11-25T03:00:28.458Z,75.37
2018-11-25T03:02:57.402Z,75.77
2018-11-25T03:05:26.320Z,66.60
2018-11-25T03:07:55.216Z,74.43
2018-11-25T03:10:24.177Z,73.00
2018-11-25T03:12:53.069Z,68.53
2018-11-25T03:15:21.978Z,77.10
2018-11-25T03:17:51.007Z,73.67
2018-11-25T03:20:20.204Z,69.03
2018-11-25T03:22:49.064Z,70.03
2018-11-25T03:25:20.255Z,73.60
2018-11-25T03:27:49.227Z,71.27
2018-11-25T03:30:22.220Z,78.97
2018-11-25T03:32:52.803Z,75.93
2018-11-25T03:35:21.763Z,72.10
2018-11-25T03:37:50.676Z,64.80
2018-11-25T03:40:19.979Z,80.17
2018-11-25T03:42:48.968Z,72.87
2018-11-25T03:45:19.571Z,76.63
2018-11-25T03:47:48.580Z,74.27
2018-11-25T03:50:17.619Z,75.10
2018-11-25T03:52:46.570Z,75.03
2018-11-25T03:55:16.661Z,76.53
2018-11-25T03:57:45.649Z,76.03
2018-11-25T04:00:19.740Z,77.50
2018-11-25T04:02:51.818Z,81.37
2018-11-25T04:05:20.657Z,72.00
2018-11-25T04:07:49.554Z,74.33
2018-11-25T04:10:19.182Z,73.93
2018-11-25T04:12:48.229Z,73.97
2018-11-25T04:15:18.469Z,78.13
2018-11-25T04:17:48.199Z,79.83
2018-11-25T04:20:19.283Z,73.07
2018-11-25T04:22:48.803Z,69.80
2018-11-25T04:25:17.797Z,79.70
2018-11-25T04:27:47.018Z,76.03
2018-11-25T04:30:17.162Z,78.10
2018-11-25T04:32:47.466Z,75.07
2018-11-25T04:35:16.490Z,66.43
2018-11-25T04:37:45.385Z,74.60
2018-11-25T04:40:17.177Z,75.90
2018-11-25T04:42:46.110Z,67.83
2018-11-25T04:45:16.166Z,70.57
2018-11-25T04:47:46.144Z,70.73
2018-11-25T04:50:16.518Z,69.40
2018-11-25T04:52:45.777Z,72.90
2018-11-25T04:55:14.759Z,72.97
2018-11-25T04:57:49.142Z,65.17
2018-11-25T05:00:18.453Z,72.97
2018-11-25T05:02:47.609Z,72.17
2018-11-25T05:05:17.114Z,67.77
2018-11-25T05:07:46.081Z,67.27
2018-11-25T05:10:16.165Z,74.17
2018-11-25T05:12:45.122Z,70.17
2018-11-25T05:15:18.210Z,65.37
2018-11-25T05:17:47.181Z,65.53
2018-11-25T05:20:16.791Z,78.47
2018-11-25T05:22:45.714Z,66.77
2018-11-25T05:25:17.325Z,70.00
2018-11-25T05:27:46.231Z,73.07
2018-11-25T05:30:18.246Z,69.27
2018-11-25T05:32:47.132Z,73.47
2018-11-25T05:35:17.514Z,68.00
2018-11-25T05:37:46.402Z,68.83
2018-11-25T05:40:16.203Z,70.67
2018-11-25T05:42:45.197Z,68.37
2018-11-25T05:45:16.563Z,61.43
2018-11-25T05:47:45.765Z,79.60
2018-11-25T05:50:16.165Z,71.20
2018-11-25T05:52:45.146Z,69.00
2018-11-25T05:55:14.304Z,73.77
2018-11-25T05:57:43.358Z,74.90
2018-11-25T06:00:20.948Z,71.83
2018-11-25T06:02:49.810Z,80.63
2018-11-25T06:05:18.679Z,77.90
2018-11-25T06:07:47.621Z,67.77
2018-11-25T06:10:16.487Z,70.90
2018-11-25T06:12:45.365Z,73.53
2018-11-25T06:15:14.862Z,68.37
2018-11-25T06:17:43.739Z,78.00
2018-11-25T06:20:15.889Z,71.33
2018-11-25T06:22:45.238Z,73.80
2018-11-25T06:25:15.841Z,73.53
2018-11-25T06:27:44.768Z,72.30
2018-11-25T06:30:17.327Z,75.57
2018-11-25T06:32:46.682Z,78.37
2018-11-25T06:35:17.010Z,85.83
2018-11-25T06:37:45.955Z,89.70
2018-11-25T06:40:17.617Z,82.93
2018-11-25T06:42:46.543Z,82.77
2018-11-25T06:45:25.226Z,79.77
2018-11-25T06:47:55.507Z,84.13
2018-11-25T06:50:24.437Z,82.43
2018-11-25T06:52:53.347Z,83.93
2018-11-25T06:55:22.219Z,91.57
2018-11-25T06:57:51.156Z,93.30
2018-11-25T07:00:23.567Z,93.10
2018-11-25T07:02:52.639Z,98.63
2018-11-25T07:05:21.560Z,96.60
2018-11-25T07:07:50.525Z,94.47
2018-11-25T07:10:21.562Z,92.40
2018-11-25T07:12:51.934Z,96.27
2018-11-25T07:15:21.221Z,99.20
2018-11-25T07:17:50.104Z,98.23
2018-11-25T07:20:19.552Z,102.60
2018-11-25T07:22:48.382Z,102.30
2018-11-25T07:25:19.901Z,100.37
2018-11-25T07:27:48.896Z,92.20
2018-11-25T07:30:25.086Z,95.07
2018-11-25T07:32:54.194Z,104.30
2018-11-25T07:35:25.419Z,100.70
2018-11-25T07:37:54.741Z,102.53
2018-11-25T07:40:24.766Z,108.40
2018-11-25T07:42:53.645Z,94.07
2018-11-25T07:45:29.992Z,98.33
2018-11-25T07:47:53.077Z,97.87
2018-11-25T07:50:22.059Z,96.37
2018-11-25T07:52:51.525Z,109.87
2018-11-25T07:55:23.041Z,109.10
2018-11-25T07:57:53.289Z,99.00
2018-11-25T08:00:23.985Z,96.93
2018-11-25T08:02:52.981Z,97.70
2018-11-25T08:05:23.770Z,102.00
2018-11-25T08:07:52.725Z,104.37
2018-11-25T08:10:21.651Z,108.77
2018-11-25T08:12:50.675Z,117.77
2018-11-25T08:15:20.281Z,98.87
2018-11-25T08:17:49.566Z,109.53
2018-11-25T08:20:20.809Z,103.27
2018-11-25T08:22:50.029Z,93.13
2018-11-25T08:25:20.539Z,110.70
2018-11-25T08:27:49.490Z,101.40
2018-11-25T08:30:23.717Z,102.57
2018-11-25T08:32:52.885Z,101.53
2018-11-25T08:35:21.886Z,97.90
2018-11-25T08:37:50.831Z,99.40
2018-11-25T08:40:24.328Z,98.67
2018-11-25T08:42:53.376Z,101.93
2018-11-25T08:45:22.338Z,98.13
2018-11-25T08:47:51.421Z,104.30
2018-11-25T08:50:20.550Z,93.97
2018-11-25T08:52:51.100Z,107.00
2018-11-25T08:55:21.844Z,99.20
2018-11-25T08:57:50.883Z,97.90
2018-11-25T09:00:23.087Z,107.97
2018-11-25T09:02:53.532Z,99.67
2018-11-25T09:05:22.519Z,96.17
2018-11-25T09:07:51.832Z,100.37
2018-11-25T09:10:21.999Z,92.17
2018-11-25T09:12:56.334Z,102.10
2018-11-25T09:15:27.497Z,100.23
2018-11-25T09:17:56.505Z,89.93
2018-11-25T09:20:25.436Z,88.97
2018-11-25T09:22:54.766Z,92.03
2018-11-25T09:25:28.501Z,99.73
2018-11-25T09:27:58.727Z,96.53
2018-11-25T09:30:29.061Z,93.40
2018-11-25T09:32:58.021Z,91.70
2018-11-25T09:35:26.931Z,91.37
2018-11-25T09:37:55.781Z,90.53
2018-11-25T09:40:26.403Z,102.07
2018-11-25T09:42:56.316Z,89.00
2018-11-25T09:45:25.291Z,108.00
2018-11-25T09:47:54.347Z,87.47
2018-11-25T09:50:24.262Z,92.37
2018-11-25T09:52:53.284Z,92.23
2018-11-25T09:55:23.630Z,88.70
2018-11-25T09:57:58.142Z,87.20
2018-11-25T10:00:32.069Z,98.87
2018-11-25T10:03:01.276Z,88.60
2018-11-25T10:05:30.313Z,86.60
2018-11-25T10:07:59.229Z,92.80
2018-11-25T10:10:28.243Z,90.23
2018-11-25T10:12:57.136Z,94.00
2018-11-25T10:15:28.599Z,90.20
2018-11-25T10:17:59.878Z,88.60
2018-11-25T10:20:28.703Z,89.80
2018-11-25T10:22:57.681Z,92.37
2018-11-25T10:25:26.867Z,84.23
2018-11-25T10:27:56.318Z,87.93
2018-11-25T10:30:27.834Z,96.63
2018-11-25T10:33:02.399Z,89.70
2018-11-25T10:35:31.318Z,100.67
2018-11-25T10:38:00.281Z,81.57
2018-11-25T10:40:29.245Z,87.17
2018-11-25T10:42:58.189Z,93.43
2018-11-25T10:45:28.014Z,86.00
2018-11-25T10:47:57.897Z,94.57
2018-11-25T10:50:26.959Z,86.90
2018-11-25T10:52:56.006Z,85.40
2018-11-25T10:55:24.959Z,81.10
2018-11-25T10:57:54.131Z,87.73
2018-11-25T11:00:33.216Z,88.03
2018-11-25T11:03:07.717Z,90.53
2018-11-25T11:05:42.050Z,86.93
2018-11-25T11:08:11.206Z,85.13
2018-11-25T11:10:40.092Z,81.47
2018-11-25T11:13:09.290Z,102.10
2018-11-25T11:15:38.268Z,89.47
2018-11-25T11:18:07.781Z,89.87
2018-11-25T11:20:36.720Z,94.43
2018-11-25T11:23:06.342Z,98.83
2018-11-25T11:25:35.293Z,85.30
2018-11-25T11:28:04.421Z,86.40
2018-11-25T11:30:33.316Z,88.20
2018-11-25T11:33:02.266Z,82.57
2018-11-25T11:35:31.327Z,91.77
2018-11-25T11:38:00.473Z,88.57
2018-11-25T11:40:29.302Z,95.10
2018-11-25T11:42:58.182Z,94.33
2018-11-25T11:45:27.359Z,101.60
2018-11-25T11:47:56.316Z,94.43
2018-11-25T11:50:25.259Z,96.43
2018-11-25T11:52:54.222Z,110.03
2018-11-25T11:55:23.154Z,108.70
2018-11-25T11:57:52.204Z,105.13
2018-11-25T12:00:31.103Z,111.03
2018-11-25T12:03:00.396Z,107.43
2018-11-25T12:05:29.308Z,103.73
2018-11-25T12:07:58.339Z,111.53
2018-11-25T12:10:27.237Z,102.97
2018-11-25T12:12:56.197Z,97.60
2018-11-25T12:15:30.785Z,109.07
2018-11-25T12:17:58.466Z,104.90
2018-11-25T12:20:29.153Z,97.53
2018-11-25T12:22:59.281Z,97.40
2018-11-25T12:25:28.301Z,94.17
2018-11-25T12:27:57.266Z,103.23
2018-11-25T12:30:26.483Z,107.73
2018-11-25T12:32:55.386Z,117.70
2018-11-25T12:35:24.414Z,105.90
2018-11-25T12:37:53.365Z,116.50
2018-11-25T12:40:23.092Z,108.40
2018-11-25T12:42:56.494Z,108.70
2018-11-25T12:45:25.474Z,101.17
2018-11-25T12:47:54.449Z,105.33
2018-11-25T12:50:25.889Z,100.87
2018-11-25T12:52:55.243Z,103.93
2018-11-25T12:55:25.917Z,107.10
2018-11-25T12:57:55.969Z,109.83
2018-11-25T13:00:37.999Z,107.00
2018-11-25T13:03:09.265Z,101.90
2018-11-25T13:05:45.651Z,114.03
2018-11-25T13:08:08.813Z,99.33
2018-11-25T13:10:37.782Z,118.50
2018-11-25T13:13:08.947Z,111.80
2018-11-25T13:15:37.895Z,111.07
2018-11-25T13:18:08.345Z,105.27
2018-11-25T13:20:37.446Z,105.07
2018-11-25T13:23:07.064Z,112.03
2018-11-25T13:25:35.913Z,105.23
2018-11-25T13:28:05.067Z,107.50
2018-11-25T13:30:34.157Z,90.23
2018-11-25T13:33:08.785Z,97.17
2018-11-25T13:35:42.072Z,93.30
2018-11-25T13:38:11.313Z,101.53
2018-11-25T13:40:40.394Z,103.00
2018-11-25T13:43:09.373Z,92.97
2018-11-25T13:45:38.355Z,100.07
2018-11-25T13:48:07.819Z,95.50
2018-11-25T13:50:36.768Z,92.40
2018-11-25T13:53:06.328Z,95.47
2018-11-25T13:55:35.146Z,91.50
2018-11-25T13:58:04.076Z,94.30
2018-11-25T14:00:47.563Z,97.90
2018-11-25T14:03:24.513Z,91.07
2018-11-25T14:05:53.704Z,94.80
2018-11-25T14:08:22.370Z,90.47
2018-11-25T14:10:57.645Z,95.60
2018-11-25T14:13:26.614Z,91.63
2018-11-25T14:15:55.518Z,93.77
2018-11-25T14:18:24.349Z,90.17
2018-11-25T14:20:53.353Z,85.23
2018-11-25T14:23:24.041Z,93.67
2018-11-25T14:25:56.458Z,92.97
2018-11-25T14:28:25.644Z,87.73
2018-11-25T14:30:54.648Z,89.03
2018-11-25T14:33:23.530Z,85.20
2018-11-25T14:35:52.465Z,95.13
2018-11-25T14:38:23.624Z,95.33
2018-11-25T14:40:54.027Z,85.17
2018-11-25T14:43:25.129Z,86.13
2018-11-25T14:45:54.056Z,86.67
2018-11-25T14:48:22.940Z,84.47
2018-11-25T14:50:51.854Z,85.80
2018-11-25T14:53:20.776Z,86.63
2018-11-25T14:55:49.784Z,80.77
2018-11-25T14:58:18.648Z,84.53
2018-11-25T15:00:47.611Z,88.07
2018-11-25T15:03:16.523Z,83.70
2018-11-25T15:05:47.347Z,97.37
2018-11-25T15:08:22.690Z,82.97
2018-11-25T15:10:51.566Z,86.53
2018-11-25T15:13:20.525Z,80.40
2018-11-25T15:15:49.570Z,90.37
2018-11-25T15:18:18.519Z,84.27
2018-11-25T15:20:47.365Z,81.53
2018-11-25T15:23:16.652Z,80.10
2018-11-25T15:25:55.896Z,72.23
2018-11-25T15:28:24.888Z,70.13
2018-11-25T15:30:53.790Z,69.73
2018-11-25T15:33:22.670Z,67.87
2018-11-25T15:35:51.560Z,66.23
2018-11-25T15:38:20.453Z,70.80
2018-11-25T15:40:49.371Z,64.50
2018-11-25T15:43:18.285Z,63.40
2018-11-25T15:45:47.110Z,63.43
2018-11-25T15:48:22.600Z,66.97
2018-11-25T15:50:51.733Z,58.33
2018-11-25T15:53:21.009Z,64.67
2018-11-25T15:55:52.643Z,62.83
2018-11-25T15:58:21.566Z,61.37
2018-11-25T16:00:50.461Z,65.10
2018-11-25T16:03:19.423Z,67.47
2018-11-25T16:06:03.694Z,72.73
2018-11-25T16:08:38.000Z,62.50
2018-11-25T16:11:01.481Z,70.23
2018-11-25T16:13:30.440Z,61.97
2018-11-25T16:15:59.258Z,67.37
2018-11-25T16:18:28.442Z,58.63
2018-11-25T16:20:57.319Z,65.03
2018-11-25T16:23:26.235Z,70.23
2018-11-25T16:25:57.912Z,64.67
2018-11-25T16:28:42.233Z,63.33
2018-11-25T16:31:11.124Z,68.90
2018-11-25T16:33:40.065Z,67.07
2018-11-25T16:36:09.084Z,69.80
2018-11-25T16:38:38.006Z,73.23
2018-11-25T16:41:07.016Z,72.00
2018-11-25T16:43:36.077Z,70.33
2018-11-25T16:46:05.093Z,70.20
2018-11-25T16:48:34.011Z,60.47
2018-11-25T16:51:02.921Z,68.80
2018-11-25T16:53:31.825Z,67.33
2018-11-25T16:56:00.706Z,67.77
2018-11-25T16:58:29.987Z,62.53
2018-11-25T17:00:58.969Z,63.37
2018-11-25T17:03:27.824Z,62.67
2018-11-25T17:05:57.010Z,62.23
2018-11-25T17:08:37.309Z,61.33
2018-11-25T17:11:07.516Z,63.40
2018-11-25T17:13:36.516Z,63.77
2018-11-25T17:16:06.535Z,69.67
2018-11-25T17:18:35.503Z,66.20
2018-11-25T17:21:04.470Z,66.23
2018-11-25T17:23:33.713Z,68.77
2018-11-25T17:26:02.607Z,72.37
2018-11-25T17:28:31.450Z,64.43
2018-11-25T17:31:00.334Z,65.83
2018-11-25T17:33:29.201Z,64.60
2018-11-25T17:35:58.205Z,61.07
2018-11-25T17:38:27.084Z,63.53
2018-11-25T17:40:56.312Z,63.00
2018-11-25T17:43:25.666Z,65.53
2018-11-25T17:45:54.494Z,70.33
2018-11-25T17:48:23.412Z,64.63
2018-11-25T17:50:52.383Z,64.53
2018-11-25T17:53:21.277Z,63.07
2018-11-25T17:55:50.762Z,64.33
2018-11-25T17:58:19.736Z,64.83
2018-11-25T18:00:58.467Z,68.10
2018-11-25T18:03:29.627Z,65.23
2018-11-25T18:05:59.184Z,69.83
2018-11-25T18:08:28.050Z,57.00
2018-11-25T18:10:57.027Z,72.63
2018-11-25T18:13:29.594Z,66.20
2018-11-25T18:16:01.346Z,66.90
2018-11-25T18:18:46.205Z,71.93
2018-11-25T18:21:23.820Z,72.40
2018-11-25T18:23:53.504Z,79.20
2018-11-25T18:26:23.065Z,76.90
2018-11-25T18:28:52.024Z,77.33
2018-11-25T18:31:21.035Z,82.33
2018-11-25T18:33:49.954Z,74.23
2018-11-25T18:36:18.762Z,71.27
2018-11-25T18:38:48.114Z,71.50
2018-11-25T18:41:17.042Z,71.53
2018-11-25T18:43:46.198Z,77.23
2018-11-25T18:46:15.102Z,74.90
2018-11-25T18:48:46.436Z,76.83
2018-11-25T18:51:15.289Z,79.63
2018-11-25T18:53:44.740Z,73.77
2018-11-25T18:56:14.138Z,73.80
2018-11-25T18:58:43.626Z,70.03
2018-11-25T19:01:22.566Z,66.63
2018-11-25T19:03:51.494Z,69.73
2018-11-25T19:06:20.407Z,60.30
2018-11-25T19:08:49.279Z,65.50
2018-11-25T19:11:18.191Z,60.27
2018-11-25T19:13:47.095Z,63.83
2018-11-25T19:16:16.001Z,60.00
2018-11-25T19:18:44.912Z,56.97
2018-11-25T19:21:13.802Z,59.33
2018-11-25T19:23:42.658Z,54.50
2018-11-25T19:26:11.527Z,55.00
2018-11-25T19:28:40.764Z,52.53
2018-11-25T19:31:09.779Z,50.80
2018-11-25T19:33:38.657Z,54.13
2018-11-25T19:36:07.566Z,49.07
2018-11-25T19:38:36.416Z,49.17
2018-11-25T19:41:06.274Z,48.10
2018-11-25T19:43:35.234Z,52.10
2018-11-25T19:46:04.231Z,43.27
2018-11-25T19:48:33.097Z,46.70
2018-11-25T19:51:01.988Z,41.90
2018-11-25T19:53:30.907Z,50.00
2018-11-25T19:56:00.422Z,43.70
2018-11-25T19:58:29.346Z,44.37
2018-11-25T20:00:58.173Z,45.07
2018-11-25T20:03:27.038Z,45.43
2018-11-25T20:05:55.904Z,46.80
2018-11-25T20:08:24.865Z,48.17
2018-11-25T20:10:53.701Z,45.80
2018-11-25T20:13:22.565Z,45.53
2018-11-25T20:15:51.424Z,39.27
2018-11-25T20:18:20.327Z,48.57
2018-11-25T20:20:54.927Z,46.07
2018-11-25T20:23:23.796Z,42.07
2018-11-25T20:25:52.655Z,47.40
2018-11-25T20:28:21.574Z,44.47
2018-11-25T20:30:50.521Z,47.23
2018-11-25T20:33:25.072Z,45.17
2018-11-25T20:35:53.899Z,43.17
2018-11-25T20:38:28.444Z,46.47
2018-11-25T20:40:57.398Z,48.53
2018-11-25T20:43:26.278Z,46.30
2018-11-25T20:46:00.941Z,45.93
2018-11-25T20:48:30.256Z,45.17
2018-11-25T20:50:59.291Z,47.63
2018-11-25T20:53:33.630Z,42.80
2018-11-25T20:56:02.517Z,48.33
2018-11-25T20:58:31.493Z,44.87
2018-11-25T21:01:00.433Z,44.67
2018-11-25T21:03:29.306Z,46.50
2018-11-25T21:05:58.255Z,47.77
2018-11-25T21:08:27.475Z,48.43
2018-11-25T21:10:56.050Z,44.97
2018-11-25T21:13:25.167Z,45.33
2018-11-25T21:15:54.145Z,47.60
2018-11-25T21:18:22.960Z,46.83
2018-11-25T21:20:52.643Z,45.90
2018-11-25T21:23:21.425Z,44.83
2018-11-25T21:25:50.465Z,45.77
2018-11-25T21:28:19.329Z,43.33
2018-11-25T21:30:48.964Z,52.07
2018-11-25T21:33:18.546Z,48.33
2018-11-25T21:35:47.487Z,44.67
2018-11-25T21:38:16.417Z,46.83
2018-11-25T21:40:45.666Z,47.70
2018-11-25T21:43:14.477Z,50.17
2018-11-25T21:45:43.364Z,46.90
2018-11-25T21:48:12.460Z,46.53
2018-11-25T21:50:41.435Z,48.67
2018-11-25T21:53:10.376Z,46.77
2018-11-25T21:55:39.199Z,48.87
2018-11-25T21:58:08.169Z,54.77
2018-11-25T22:00:37.036Z,50.47
2018-11-25T22:03:06.074Z,46.43
2018-11-25T22:05:34.992Z,51.60
2018-11-25T22:08:05.074Z,49.33
2018-11-25T22:10:33.945Z,47.70
2018-11-25T22:13:02.833Z,49.43
2018-11-25T22:15:31.796Z,49.53
2018-11-25T22:18:00.650Z,50.27
2018-11-25T22:20:29.509Z,51.70
2018-11-25T22:22:58.377Z,45.80
2018-11-25T22:25:27.283Z,51.53
2018-11-25T22:27:56.244Z,51.87
2018-11-25T22:30:25.287Z,51.83
2018-11-25T22:32:54.487Z,51.13
2018-11-25T22:35:23.838Z,53.70
2018-11-25T22:37:52.912Z,48.73
2018-11-25T22:40:21.838Z,48.80
2018-11-25T22:42:51.448Z,49.83
2018-11-25T22:45:22.434Z,52.83
2018-11-25T22:47:51.387Z,48.30
2018-11-25T22:50:21.838Z,52.57
2018-11-25T22:52:51.042Z,45.90
2018-11-25T22:55:23.718Z,48.33
2018-11-25T22:57:52.748Z,44.87
2018-11-25T23:00:26.734Z,47.63
2018-11-25T23:02:55.697Z,47.13
2018-11-25T23:05:41.403Z,44.40
2018-11-25T23:08:10.330Z,47.63
2018-11-25T23:10:39.254Z,45.37
2018-11-25T23:13:08.296Z,48.40
2018-11-25T23:15:37.338Z,41.70
2018-11-25T23:18:06.300Z,41.90
2018-11-25T23:20:35.234Z,45.40
2018-11-25T23:23:04.288Z,51.37
2018-11-25T23:25:33.253Z,43.63
2018-11-25T23:28:02.118Z,46.20
2018-11-25T23:30:31.015Z,48.17
2018-11-25T23:32:59.916Z,40.90
2018-11-25T23:35:30.978Z,40.77
2018-11-25T23:37:59.558Z,44.50
2018-11-25T23:40:28.514Z,41.73
2018-11-25T23:42:57.428Z,42.30
2018-11-25T23:45:26.341Z,43.10
2018-11-25T23:47:55.211Z,41.30
2018-11-25T23:50:24.242Z,46.20
2018-11-25T23:52:53.248Z,43.73
2018-11-25T23:55:22.129Z,41.07
2018-11-25T23:57:51.042Z,43.70
